createdAt,value
2023-03-17T00:01:20.139Z,7.66
2023-03-17T00:03:47.191Z,7.72
2023-03-17T00:06:24.770Z,7.62
2023-03-17T00:08:50.858Z,7.73
2023-03-17T00:11:17.570Z,7.77
2023-03-17T00:13:44.310Z,6.85
2023-03-17T00:16:14.983Z,7.63
2023-03-17T00:18:41.311Z,7.55
2023-03-17T00:21:12.062Z,6.27
2023-03-17T00:23:38.926Z,7.67
2023-03-17T00:26:04.976Z,7.64
2023-03-17T00:28:31.033Z,7.68
2023-03-17T00:31:00.908Z,7.52
2023-03-17T00:33:30.008Z,7.66
2023-03-17T00:35:56.926Z,7.37
2023-03-17T00:38:25.957Z,7.44
2023-03-17T00:40:52.096Z,7.00
2023-03-17T00:43:18.190Z,6.96
2023-03-17T00:45:44.334Z,7.38
2023-03-17T00:48:19.042Z,7.19
2023-03-17T00:50:46.910Z,7.48
2023-03-17T00:53:16.017Z,7.52
2023-03-17T00:55:43.897Z,7.57
2023-03-17T00:58:14.144Z,6.71
2023-03-17T01:00:40.354Z,6.99
2023-03-17T01:03:10.679Z,7.28
2023-03-17T01:05:37.990Z,7.22
2023-03-17T01:08:04.487Z,7.41
2023-03-17T01:10:31.120Z,5.65
2023-03-17T01:12:58.651Z,7.31
2023-03-17T01:15:29.344Z,7.44
2023-03-17T01:17:56.543Z,7.30
2023-03-17T01:20:27.018Z,7.34
2023-03-17T01:22:53.165Z,7.58
2023-03-17T01:25:19.635Z,7.61
2023-03-17T01:27:46.594Z,7.61
2023-03-17T01:30:18.797Z,7.28
2023-03-17T01:32:44.960Z,7.30
2023-03-17T01:35:11.926Z,7.65
2023-03-17T01:37:38.694Z,7.48
2023-03-17T01:40:06.282Z,7.76
2023-03-17T01:42:32.686Z,7.57
2023-03-17T01:45:04.963Z,7.34
2023-03-17T01:47:31.401Z,5.83
2023-03-17T01:50:05.558Z,7.72
2023-03-17T01:52:33.670Z,7.34
2023-03-17T01:55:09.886Z,7.51
2023-03-17T01:57:44.882Z,7.51
2023-03-17T02:00:15.522Z,7.45
2023-03-17T02:02:44.761Z,6.88
2023-03-17T02:05:16.297Z,7.07
2023-03-17T02:07:42.480Z,7.23
2023-03-17T02:10:09.300Z,7.12
2023-03-17T02:12:35.891Z,7.34
2023-03-17T02:15:02.639Z,6.22
2023-03-17T02:17:29.028Z,7.34
2023-03-17T02:19:55.613Z,6.28
2023-03-17T02:22:21.676Z,7.56
2023-03-17T02:24:47.743Z,7.44
2023-03-17T02:27:47.454Z,7.51
2023-03-17T02:30:18.640Z,7.46
2023-03-17T02:32:44.732Z,7.28
2023-03-17T02:35:11.110Z,7.64
2023-03-17T02:37:37.788Z,7.37
2023-03-17T02:40:05.354Z,7.24
2023-03-17T02:42:32.499Z,7.56
2023-03-17T02:44:58.669Z,7.50
2023-03-17T02:47:24.974Z,7.61
2023-03-17T02:49:51.231Z,7.52
2023-03-17T02:52:17.339Z,7.49
2023-03-17T02:54:43.405Z,7.26
2023-03-17T02:57:09.711Z,7.43
2023-03-17T02:59:36.357Z,7.66
2023-03-17T03:02:02.464Z,7.55
2023-03-17T03:04:28.872Z,7.65
2023-03-17T03:06:56.267Z,7.43
2023-03-17T03:09:22.488Z,7.03
2023-03-17T03:11:48.604Z,7.21
2023-03-17T03:14:15.274Z,7.56
2023-03-17T03:16:42.733Z,7.42
2023-03-17T03:19:09.142Z,7.47
2023-03-17T03:21:36.003Z,7.57
2023-03-17T03:24:02.932Z,7.52
2023-03-17T03:26:29.046Z,7.81
2023-03-17T03:28:56.715Z,7.45
2023-03-17T03:31:22.884Z,7.40
2023-03-17T03:33:49.201Z,7.66
2023-03-17T03:36:15.506Z,7.39
2023-03-17T03:38:41.903Z,7.31
2023-03-17T03:41:08.487Z,7.56
2023-03-17T03:43:35.174Z,7.59
2023-03-17T03:46:01.865Z,6.83
2023-03-17T03:48:28.086Z,7.64
2023-03-17T03:50:59.034Z,7.33
2023-03-17T03:53:25.651Z,7.45
2023-03-17T03:55:52.046Z,7.43
2023-03-17T03:58:18.207Z,7.69
2023-03-17T04:00:44.935Z,7.46
2023-03-17T04:03:11.762Z,7.64
2023-03-17T04:05:37.962Z,7.70
2023-03-17T04:08:04.472Z,7.71
2023-03-17T04:10:30.990Z,7.84
2023-03-17T04:12:57.154Z,8.01
2023-03-17T04:15:23.600Z,7.80
2023-03-17T04:17:49.721Z,7.65
2023-03-17T04:20:16.337Z,7.64
2023-03-17T04:22:43.031Z,7.56
2023-03-17T04:25:10.986Z,7.74
2023-03-17T04:27:37.447Z,7.89
2023-03-17T04:30:04.333Z,8.02
2023-03-17T04:32:30.784Z,7.20
2023-03-17T04:34:57.790Z,7.79
2023-03-17T04:37:24.507Z,7.66
2023-03-17T04:39:51.510Z,7.16
2023-03-17T04:42:17.641Z,7.19
2023-03-17T04:44:43.863Z,7.75
2023-03-17T04:47:10.227Z,7.27
2023-03-17T04:49:36.396Z,7.82
2023-03-17T04:52:02.705Z,7.73
2023-03-17T04:54:28.784Z,7.74
2023-03-17T04:56:55.474Z,7.63
2023-03-17T04:59:21.551Z,7.27
2023-03-17T05:01:47.626Z,6.84
2023-03-17T05:04:25.303Z,7.53
2023-03-17T05:06:57.535Z,7.23
2023-03-17T05:09:24.639Z,7.12
2023-03-17T05:11:51.116Z,7.32
2023-03-17T05:14:17.326Z,6.33
2023-03-17T05:16:46.551Z,6.79
2023-03-17T05:19:12.656Z,7.03
2023-03-17T05:21:39.289Z,7.06
2023-03-17T05:24:05.798Z,6.20
2023-03-17T05:26:32.344Z,7.07
2023-03-17T05:28:58.421Z,7.49
2023-03-17T05:31:24.545Z,7.05
2023-03-17T05:33:50.704Z,6.96
2023-03-17T05:36:17.148Z,7.04
2023-03-17T05:38:43.821Z,6.97
2023-03-17T05:41:10.409Z,5.59
2023-03-17T05:43:36.736Z,7.34
2023-03-17T05:46:03.436Z,7.20
2023-03-17T05:48:29.746Z,7.24
2023-03-17T05:50:55.806Z,7.32
2023-03-17T05:53:22.846Z,7.39
2023-03-17T05:55:48.963Z,7.16
2023-03-17T05:58:16.063Z,7.29
2023-03-17T06:00:42.993Z,6.89
2023-03-17T06:03:09.311Z,7.61
2023-03-17T06:05:35.983Z,7.71
2023-03-17T06:08:02.188Z,7.61
2023-03-17T06:10:28.372Z,7.84
2023-03-17T06:12:54.967Z,7.46
2023-03-17T06:15:21.039Z,7.55
2023-03-17T06:17:47.092Z,7.66
2023-03-17T06:20:13.574Z,7.53
2023-03-17T06:22:51.604Z,7.95
2023-03-17T06:25:21.467Z,7.44
2023-03-17T06:27:47.668Z,6.92
2023-03-17T06:30:13.942Z,6.87
2023-03-17T06:32:40.084Z,5.41
2023-03-17T06:35:06.825Z,7.68
2023-03-17T06:37:33.491Z,7.73
2023-03-17T06:40:00.456Z,7.59
2023-03-17T06:42:27.280Z,7.22
2023-03-17T06:44:53.399Z,7.59
2023-03-17T06:47:19.578Z,7.64
2023-03-17T06:49:45.825Z,7.66
2023-03-17T06:52:12.794Z,7.54
2023-03-17T06:54:39.181Z,6.59
2023-03-17T06:57:05.323Z,7.39
2023-03-17T06:59:31.548Z,7.58
2023-03-17T07:01:58.757Z,7.77
2023-03-17T07:04:24.964Z,7.89
2023-03-17T07:06:51.264Z,8.05
2023-03-17T07:09:17.456Z,7.67
2023-03-17T07:11:43.558Z,7.87
2023-03-17T07:14:09.715Z,7.94
2023-03-17T07:16:36.890Z,8.13
2023-03-17T07:19:03.023Z,7.54
2023-03-17T07:21:29.108Z,7.97
2023-03-17T07:23:55.477Z,7.88
2023-03-17T07:26:21.616Z,8.45
2023-03-17T07:28:47.770Z,8.59
2023-03-17T07:31:14.346Z,8.74
2023-03-17T07:33:40.599Z,6.48
2023-03-17T07:36:08.329Z,8.60
2023-03-17T07:38:34.484Z,8.67
2023-03-17T07:41:00.672Z,8.86
2023-03-17T07:43:26.813Z,9.02
2023-03-17T07:45:52.998Z,8.74
2023-03-17T07:48:19.115Z,8.82
2023-03-17T07:50:45.273Z,8.73
2023-03-17T07:53:11.383Z,8.86
2023-03-17T07:55:38.235Z,9.25
2023-03-17T07:58:05.344Z,7.59
2023-03-17T08:00:31.898Z,7.12
2023-03-17T08:03:09.271Z,9.14
2023-03-17T08:05:36.922Z,9.21
2023-03-17T08:08:04.567Z,8.38
2023-03-17T08:10:31.430Z,9.22
2023-03-17T08:12:57.694Z,9.47
2023-03-17T08:15:23.794Z,9.47
2023-03-17T08:17:50.088Z,9.63
2023-03-17T08:20:16.359Z,9.40
2023-03-17T08:22:43.371Z,9.95
2023-03-17T08:25:10.873Z,10.55
2023-03-17T08:27:37.079Z,7.84
2023-03-17T08:30:03.636Z,9.68
2023-03-17T08:32:29.786Z,10.18
2023-03-17T08:34:55.981Z,8.76
2023-03-17T08:37:23.917Z,10.13
2023-03-17T08:39:50.403Z,10.12
2023-03-17T08:42:16.528Z,10.45
2023-03-17T08:44:44.162Z,10.45
2023-03-17T08:47:10.315Z,10.42
2023-03-17T08:49:36.715Z,10.30
2023-03-17T08:52:03.210Z,10.54
2023-03-17T08:54:29.585Z,10.61
2023-03-17T08:56:57.389Z,10.38
2023-03-17T08:59:23.493Z,10.67
2023-03-17T09:01:49.808Z,10.57
2023-03-17T09:04:16.200Z,10.57
2023-03-17T09:06:51.907Z,10.50
2023-03-17T09:09:27.856Z,10.59
2023-03-17T09:11:53.911Z,11.24
2023-03-17T09:14:20.023Z,10.93
2023-03-17T09:16:48.029Z,11.04
2023-03-17T09:19:15.853Z,10.81
2023-03-17T09:21:42.036Z,10.45
2023-03-17T09:24:08.239Z,11.39
2023-03-17T09:26:34.307Z,11.71
2023-03-17T09:29:02.004Z,11.68
2023-03-17T09:31:29.233Z,12.19
2023-03-17T09:33:55.383Z,11.46
2023-03-17T09:36:21.525Z,11.97
2023-03-17T09:38:47.813Z,12.16
2023-03-17T09:41:31.988Z,10.60
2023-03-17T09:44:03.929Z,12.50
2023-03-17T09:47:14.081Z,12.49
2023-03-17T09:49:45.797Z,12.57
2023-03-17T09:52:17.931Z,12.07
2023-03-17T09:54:47.566Z,12.84
2023-03-17T09:57:17.326Z,12.31
2023-03-17T09:59:46.634Z,12.57
2023-03-17T10:02:26.958Z,12.72
2023-03-17T10:04:53.306Z,13.04
2023-03-17T10:07:26.338Z,13.13
2023-03-17T10:10:00.569Z,12.62
2023-03-17T10:12:54.663Z,12.88
2023-03-17T10:15:23.527Z,12.86
2023-03-17T10:17:51.636Z,13.11
2023-03-17T10:20:22.971Z,12.84
2023-03-17T10:22:52.963Z,12.71
2023-03-17T10:25:31.361Z,12.78
2023-03-17T10:28:19.126Z,13.07
2023-03-17T10:30:45.298Z,13.42
2023-03-17T10:33:11.910Z,13.50
2023-03-17T10:35:38.756Z,13.18
2023-03-17T10:38:22.502Z,13.49
2023-03-17T10:41:00.005Z,13.64
2023-03-17T10:43:31.522Z,13.48
2023-03-17T10:46:03.594Z,13.57
2023-03-17T10:48:34.681Z,13.61
2023-03-17T10:51:06.019Z,13.91
2023-03-17T10:53:42.654Z,13.74
2023-03-17T10:56:09.668Z,14.05
2023-03-17T10:58:40.947Z,14.04
2023-03-17T11:01:28.784Z,14.28
2023-03-17T11:03:55.256Z,14.39
2023-03-17T11:06:41.932Z,14.36
2023-03-17T11:09:10.311Z,14.72
2023-03-17T11:11:48.129Z,14.80
2023-03-17T11:14:19.095Z,14.87
2023-03-17T11:17:01.820Z,14.88
2023-03-17T11:20:04.790Z,14.99
2023-03-17T11:22:42.266Z,13.81
2023-03-17T11:25:19.362Z,12.98
2023-03-17T11:27:53.363Z,14.69
2023-03-17T11:30:34.970Z,14.22
2023-03-17T11:33:13.228Z,14.38
2023-03-17T11:35:52.350Z,14.29
2023-03-17T11:38:21.526Z,14.53
2023-03-17T11:40:59.785Z,14.58
2023-03-17T11:43:28.893Z,14.36
2023-03-17T11:46:11.176Z,14.37
2023-03-17T11:48:52.329Z,14.39
2023-03-17T11:51:29.695Z,14.03
2023-03-17T11:54:04.852Z,14.49
2023-03-17T11:56:51.692Z,14.60
2023-03-17T11:59:59.346Z,14.71
2023-03-17T12:02:38.699Z,14.61
2023-03-17T12:05:09.072Z,14.86
2023-03-17T12:07:38.211Z,14.67
2023-03-17T12:10:23.260Z,15.06
2023-03-17T12:12:59.156Z,15.00
2023-03-17T12:15:30.095Z,15.09
2023-03-17T12:18:09.572Z,14.95
2023-03-17T12:20:42.229Z,14.92
2023-03-17T12:23:34.035Z,13.75
2023-03-17T12:26:07.111Z,13.27
2023-03-17T12:28:48.332Z,15.11
2023-03-17T12:31:35.441Z,15.08
2023-03-17T12:34:38.776Z,14.97
2023-03-17T12:37:05.008Z,14.99
2023-03-17T12:39:33.109Z,14.89
2023-03-17T12:42:27.103Z,14.87
2023-03-17T12:45:27.271Z,14.81
2023-03-17T12:48:30.896Z,14.81
2023-03-17T12:51:21.627Z,14.74
2023-03-17T12:53:49.983Z,14.93
2023-03-17T12:56:26.710Z,14.96
2023-03-17T12:58:54.454Z,15.00
2023-03-17T13:01:26.170Z,14.90
2023-03-17T13:04:02.682Z,15.06
2023-03-17T13:06:38.052Z,15.12
2023-03-17T13:09:37.785Z,15.08
2023-03-17T13:12:06.034Z,15.08
2023-03-17T13:14:51.059Z,15.17
2023-03-17T13:17:17.186Z,14.99
2023-03-17T13:19:56.046Z,14.89
2023-03-17T13:22:22.064Z,14.78
2023-03-17T13:24:52.483Z,14.22
2023-03-17T13:27:31.134Z,15.00
2023-03-17T13:29:58.821Z,14.80
2023-03-17T13:32:24.900Z,15.41
2023-03-17T13:34:53.192Z,15.16
2023-03-17T13:37:33.140Z,15.25
2023-03-17T13:39:59.186Z,15.09
2023-03-17T13:42:25.348Z,15.24
2023-03-17T13:45:07.272Z,15.08
2023-03-17T13:47:41.469Z,14.94
2023-03-17T13:50:30.228Z,14.94
2023-03-17T13:53:01.215Z,15.06
2023-03-17T13:55:38.025Z,15.03
2023-03-17T13:58:09.229Z,15.00
2023-03-17T14:00:42.930Z,14.77
2023-03-17T14:03:18.985Z,13.23
2023-03-17T14:05:51.962Z,15.15
2023-03-17T14:08:28.921Z,15.09
2023-03-17T14:11:01.492Z,14.90
2023-03-17T14:13:42.852Z,14.86
2023-03-17T14:16:11.855Z,14.85
2023-03-17T14:18:40.030Z,14.96
2023-03-17T14:21:17.727Z,14.71
2023-03-17T14:23:55.272Z,14.25
2023-03-17T14:26:26.903Z,15.03
2023-03-17T14:28:53.132Z,14.34
2023-03-17T14:31:24.611Z,14.97
2023-03-17T14:33:54.065Z,14.94
2023-03-17T14:36:20.243Z,15.08
2023-03-17T14:38:54.274Z,14.89
2023-03-17T14:41:22.409Z,13.93
2023-03-17T14:43:51.616Z,14.84
2023-03-17T14:46:20.755Z,14.85
2023-03-17T14:48:49.565Z,14.68
2023-03-17T14:51:35.464Z,14.72
2023-03-17T14:54:04.185Z,14.58
2023-03-17T14:56:51.420Z,9.77
2023-03-17T14:59:18.443Z,14.81
2023-03-17T15:01:48.848Z,14.80
2023-03-17T15:04:24.128Z,14.84
2023-03-17T15:06:52.932Z,13.34
2023-03-17T15:09:25.496Z,14.75
2023-03-17T15:11:54.597Z,14.76
2023-03-17T15:14:33.587Z,14.69
2023-03-17T15:17:02.579Z,14.76
2023-03-17T15:19:40.723Z,14.73
2023-03-17T15:22:25.708Z,14.70
2023-03-17T15:25:13.768Z,14.60
2023-03-17T15:27:39.922Z,14.73
2023-03-17T15:30:06.739Z,14.12
2023-03-17T15:32:33.108Z,14.52
2023-03-17T15:34:59.437Z,14.58
2023-03-17T15:37:27.849Z,14.47
2023-03-17T15:39:56.991Z,13.39
2023-03-17T15:42:29.837Z,14.59
2023-03-17T15:44:56.317Z,14.64
2023-03-17T15:47:25.742Z,14.57
2023-03-17T15:49:56.486Z,14.69
2023-03-17T15:52:24.695Z,14.61
2023-03-17T15:54:52.468Z,14.48
2023-03-17T15:57:18.596Z,14.58
2023-03-17T15:59:44.776Z,14.48
2023-03-17T16:02:30.985Z,14.49
2023-03-17T16:04:58.180Z,13.88
2023-03-17T16:07:25.316Z,14.41
2023-03-17T16:09:51.497Z,9.77
2023-03-17T16:12:17.848Z,14.44
2023-03-17T16:14:44.011Z,14.35
2023-03-17T16:17:21.136Z,14.44
2023-03-17T16:19:47.352Z,14.40
2023-03-17T16:22:34.980Z,14.46
2023-03-17T16:25:02.080Z,14.57
2023-03-17T16:27:28.201Z,14.12
2023-03-17T16:29:54.281Z,14.31
2023-03-17T16:32:20.645Z,14.27
2023-03-17T16:34:47.202Z,14.23
2023-03-17T16:37:16.407Z,14.20
2023-03-17T16:39:42.556Z,14.43
2023-03-17T16:42:21.341Z,14.06
2023-03-17T16:44:47.431Z,14.42
2023-03-17T16:47:14.132Z,14.31
2023-03-17T16:49:40.213Z,14.34
2023-03-17T16:52:06.362Z,14.41
2023-03-17T16:54:32.817Z,14.44
2023-03-17T16:56:59.629Z,14.25
2023-03-17T16:59:30.457Z,14.09
2023-03-17T17:01:57.368Z,14.47
2023-03-17T17:04:23.731Z,14.34
2023-03-17T17:06:49.841Z,14.49
2023-03-17T17:09:15.914Z,14.38
2023-03-17T17:11:42.238Z,14.28
2023-03-17T17:14:08.348Z,14.21
2023-03-17T17:16:35.870Z,14.24
2023-03-17T17:19:03.071Z,13.20
2023-03-17T17:21:30.387Z,14.31
2023-03-17T17:23:57.974Z,14.26
2023-03-17T17:26:24.049Z,13.75
2023-03-17T17:28:50.183Z,13.65
2023-03-17T17:31:16.343Z,14.12
2023-03-17T17:33:42.469Z,14.17
2023-03-17T17:36:13.471Z,14.02
2023-03-17T17:38:39.717Z,14.23
2023-03-17T17:41:08.193Z,14.17
2023-03-17T17:43:34.479Z,14.29
2023-03-17T17:46:00.954Z,13.04
2023-03-17T17:48:27.490Z,14.31
2023-03-17T17:50:54.971Z,14.17
2023-03-17T17:53:21.234Z,13.69
2023-03-17T17:55:48.951Z,13.85
2023-03-17T17:58:16.865Z,14.14
2023-03-17T18:00:43.168Z,14.25
2023-03-17T18:03:09.406Z,12.51
2023-03-17T18:05:36.244Z,14.13
2023-03-17T18:08:03.999Z,13.99
2023-03-17T18:10:30.775Z,13.04
2023-03-17T18:12:57.265Z,14.09
2023-03-17T18:15:25.764Z,14.21
2023-03-17T18:17:52.146Z,14.25
2023-03-17T18:20:20.940Z,13.90
2023-03-17T18:22:47.331Z,14.09
2023-03-17T18:25:16.556Z,14.03
2023-03-17T18:27:43.140Z,13.53
2023-03-17T18:30:12.620Z,14.12
2023-03-17T18:32:39.466Z,14.09
2023-03-17T18:35:11.598Z,14.14
2023-03-17T18:37:37.740Z,14.13
2023-03-17T18:40:15.373Z,9.70
2023-03-17T18:42:43.273Z,14.10
2023-03-17T18:45:10.911Z,14.00
2023-03-17T18:47:38.279Z,13.98
2023-03-17T18:50:06.331Z,13.98
2023-03-17T18:52:34.161Z,13.93
2023-03-17T18:55:00.432Z,13.92
2023-03-17T18:57:26.964Z,13.87
2023-03-17T18:59:53.610Z,13.93
2023-03-17T19:02:20.409Z,13.80
2023-03-17T19:04:47.150Z,13.97
2023-03-17T19:07:14.071Z,13.47
2023-03-17T19:09:40.606Z,13.85
2023-03-17T19:12:07.148Z,13.31
2023-03-17T19:14:34.055Z,13.74
2023-03-17T19:17:00.359Z,13.86
2023-03-17T19:19:26.704Z,13.76
2023-03-17T19:21:52.896Z,13.85
2023-03-17T19:24:19.211Z,13.88
2023-03-17T19:26:45.428Z,13.86
2023-03-17T19:29:11.515Z,13.88
2023-03-17T19:31:41.845Z,13.86
2023-03-17T19:34:09.152Z,13.97
2023-03-17T19:36:36.460Z,11.64
2023-03-17T19:39:08.026Z,13.97
2023-03-17T19:41:34.608Z,12.01
2023-03-17T19:44:01.493Z,14.00
2023-03-17T19:46:28.401Z,13.86
2023-03-17T19:48:57.946Z,13.78
2023-03-17T19:51:25.294Z,13.93
2023-03-17T19:53:51.362Z,13.69
2023-03-17T19:56:18.234Z,14.03
2023-03-17T19:58:44.817Z,13.83
2023-03-17T20:01:11.343Z,13.96
2023-03-17T20:03:41.624Z,13.91
2023-03-17T20:06:08.815Z,13.99
2023-03-17T20:08:35.662Z,13.88
2023-03-17T20:11:02.000Z,13.90
2023-03-17T20:13:28.068Z,13.85
2023-03-17T20:15:54.141Z,13.67
2023-03-17T20:18:20.429Z,13.92
2023-03-17T20:20:53.291Z,13.82
2023-03-17T20:23:20.920Z,13.79
2023-03-17T20:25:48.705Z,13.68
2023-03-17T20:28:18.504Z,13.80
2023-03-17T20:30:44.739Z,13.66
2023-03-17T20:33:11.844Z,13.86
2023-03-17T20:35:40.553Z,13.84
2023-03-17T20:38:07.549Z,13.77
2023-03-17T20:40:33.789Z,13.97
2023-03-17T20:43:00.265Z,13.61
2023-03-17T20:45:26.819Z,12.61
2023-03-17T20:47:53.730Z,13.85
2023-03-17T20:50:20.413Z,13.81
2023-03-17T20:52:47.116Z,13.89
2023-03-17T20:55:13.398Z,13.66
2023-03-17T20:57:40.720Z,13.75
2023-03-17T21:00:11.851Z,13.61
2023-03-17T21:02:38.657Z,13.93
2023-03-17T21:05:06.677Z,13.81
2023-03-17T21:07:33.101Z,13.76
2023-03-17T21:10:01.315Z,13.80
2023-03-17T21:12:27.441Z,11.99
2023-03-17T21:14:53.528Z,13.69
2023-03-17T21:17:19.931Z,13.72
2023-03-17T21:19:46.714Z,13.64
2023-03-17T21:22:12.895Z,13.76
2023-03-17T21:24:39.222Z,13.52
2023-03-17T21:27:07.524Z,13.64
2023-03-17T21:29:34.238Z,13.59
2023-03-17T21:32:00.958Z,13.53
2023-03-17T21:34:29.284Z,13.70
2023-03-17T21:36:56.571Z,12.90
2023-03-17T21:39:23.664Z,13.77
2023-03-17T21:41:50.248Z,13.63
2023-03-17T21:44:17.613Z,13.58
2023-03-17T21:46:45.184Z,13.46
2023-03-17T21:49:13.599Z,13.39
2023-03-17T21:51:41.938Z,13.69
2023-03-17T21:54:08.335Z,13.68
2023-03-17T21:56:34.424Z,13.84
2023-03-17T21:59:00.625Z,13.60
2023-03-17T22:01:27.880Z,13.78
2023-03-17T22:03:54.770Z,12.59
2023-03-17T22:06:21.085Z,13.69
2023-03-17T22:08:48.069Z,13.68
2023-03-17T22:11:19.001Z,12.74
2023-03-17T22:13:45.465Z,13.85
2023-03-17T22:16:12.329Z,13.93
2023-03-17T22:18:39.159Z,13.60
2023-03-17T22:21:07.466Z,13.74
2023-03-17T22:23:38.976Z,13.49
2023-03-17T22:26:10.841Z,12.61
2023-03-17T22:28:37.502Z,13.09
2023-03-17T22:31:25.239Z,13.33
2023-03-17T22:33:54.854Z,13.10
2023-03-17T22:36:23.658Z,13.40
2023-03-17T22:38:50.620Z,13.46
2023-03-17T22:41:21.919Z,13.58
2023-03-17T22:43:49.376Z,12.45
2023-03-17T22:46:16.640Z,13.20
2023-03-17T22:48:45.808Z,13.68
2023-03-17T22:51:17.178Z,13.59
2023-03-17T22:53:44.697Z,13.38
2023-03-17T22:56:12.045Z,13.56
2023-03-17T22:58:38.617Z,13.66
2023-03-17T23:01:08.112Z,13.28
2023-03-17T23:03:35.134Z,12.83
2023-03-17T23:06:05.090Z,13.45
2023-03-17T23:08:34.753Z,13.50
2023-03-17T23:11:05.612Z,13.50
2023-03-17T23:13:31.978Z,13.70
2023-03-17T23:15:59.091Z,13.54
2023-03-17T23:18:25.628Z,13.60
2023-03-17T23:20:53.105Z,13.64
2023-03-17T23:23:21.007Z,13.70
2023-03-17T23:25:47.125Z,13.69
2023-03-17T23:28:14.925Z,13.84
2023-03-17T23:30:42.270Z,13.57
2023-03-17T23:33:08.893Z,13.68
2023-03-17T23:35:35.289Z,13.61
2023-03-17T23:38:03.272Z,13.68
2023-03-17T23:40:31.241Z,13.62
2023-03-17T23:43:00.412Z,13.39
2023-03-17T23:45:29.782Z,13.62
2023-03-17T23:47:56.794Z,13.64
2023-03-17T23:50:25.481Z,11.74
2023-03-17T23:52:53.441Z,13.67
2023-03-17T23:55:19.823Z,12.51
2023-03-17T23:57:45.924Z,13.52
